sensor_id;sensor_type;location;lat;lon;timestamp;P1;durP1;ratioP1;P2;durP2;ratioP2
77040;SDS011;65974;42.664;23.264;2023-06-14T00:00:18;15.77;;;7.95;;
77040;SDS011;65974;42.664;23.264;2023-06-14T00:02:45;12.23;;;7.18;;
77040;SDS011;65974;42.664;23.264;2023-06-14T00:05:10;13.82;;;7.43;;
77040;SDS011;65974;42.664;23.264;2023-06-14T00:07:37;14.65;;;7.07;;
77040;SDS011;65974;42.664;23.264;2023-06-14T00:10:07;16.50;;;8.07;;
77040;SDS011;65974;42.664;23.264;2023-06-14T00:12:33;14.77;;;7.07;;
77040;SDS011;65974;42.664;23.264;2023-06-14T00:14:59;10.77;;;7.25;;
77040;SDS011;65974;42.664;23.264;2023-06-14T00:17:26;11.73;;;7.75;;
77040;SDS011;65974;42.664;23.264;2023-06-14T00:19:55;11.07;;;6.28;;
77040;SDS011;65974;42.664;23.264;2023-06-14T00:22:21;12.73;;;7.38;;
77040;SDS011;65974;42.664;23.264;2023-06-14T00:24:49;14.07;;;7.75;;
77040;SDS011;65974;42.664;23.264;2023-06-14T00:27:15;16.02;;;8.73;;
77040;SDS011;65974;42.664;23.264;2023-06-14T00:29:41;15.73;;;8.70;;
77040;SDS011;65974;42.664;23.264;2023-06-14T00:32:06;15.43;;;8.20;;
77040;SDS011;65974;42.664;23.264;2023-06-14T00:34:32;17.70;;;8.82;;
77040;SDS011;65974;42.664;23.264;2023-06-14T00:36:58;17.73;;;8.73;;
77040;SDS011;65974;42.664;23.264;2023-06-14T00:39:23;15.55;;;8.38;;
77040;SDS011;65974;42.664;23.264;2023-06-14T00:41:49;17.73;;;8.27;;
77040;SDS011;65974;42.664;23.264;2023-06-14T00:44:14;15.93;;;8.38;;
77040;SDS011;65974;42.664;23.264;2023-06-14T00:46:41;16.42;;;8.93;;
77040;SDS011;65974;42.664;23.264;2023-06-14T00:49:07;15.15;;;8.77;;
77040;SDS011;65974;42.664;23.264;2023-06-14T00:51:34;12.15;;;7.50;;
77040;SDS011;65974;42.664;23.264;2023-06-14T00:53:59;16.25;;;7.68;;
77040;SDS011;65974;42.664;23.264;2023-06-14T00:56:25;11.85;;;6.78;;
77040;SDS011;65974;42.664;23.264;2023-06-14T00:58:52;12.25;;;7.35;;
77040;SDS011;65974;42.664;23.264;2023-06-14T01:01:18;16.25;;;7.38;;
77040;SDS011;65974;42.664;23.264;2023-06-14T01:03:43;12.18;;;6.63;;
77040;SDS011;65974;42.664;23.264;2023-06-14T01:14:41;13.15;;;7.78;;
77040;SDS011;65974;42.664;23.264;2023-06-14T01:17:07;14.98;;;8.63;;
77040;SDS011;65974;42.664;23.264;2023-06-14T01:19:40;15.77;;;8.27;;
77040;SDS011;65974;42.664;23.264;2023-06-14T01:22:07;15.48;;;8.18;;
77040;SDS011;65974;42.664;23.264;2023-06-14T01:24:34;14.45;;;7.78;;
77040;SDS011;65974;42.664;23.264;2023-06-14T01:27:00;12.75;;;7.00;;
77040;SDS011;65974;42.664;23.264;2023-06-14T01:29:27;14.65;;;8.18;;
77040;SDS011;65974;42.664;23.264;2023-06-14T01:31:58;17.38;;;8.82;;
77040;SDS011;65974;42.664;23.264;2023-06-14T01:34:25;15.50;;;7.57;;
77040;SDS011;65974;42.664;23.264;2023-06-14T01:36:50;12.60;;;7.03;;
77040;SDS011;65974;42.664;23.264;2023-06-14T01:39:19;14.38;;;7.72;;
77040;SDS011;65974;42.664;23.264;2023-06-14T01:41:46;17.17;;;8.13;;
77040;SDS011;65974;42.664;23.264;2023-06-14T01:44:14;12.48;;;8.07;;
77040;SDS011;65974;42.664;23.264;2023-06-14T01:46:41;13.25;;;6.35;;
77040;SDS011;65974;42.664;23.264;2023-06-14T01:49:08;13.07;;;7.97;;
77040;SDS011;65974;42.664;23.264;2023-06-14T01:51:34;17.58;;;8.93;;
77040;SDS011;65974;42.664;23.264;2023-06-14T01:54:00;11.63;;;7.80;;
77040;SDS011;65974;42.664;23.264;2023-06-14T01:56:26;14.70;;;8.40;;
77040;SDS011;65974;42.664;23.264;2023-06-14T01:58:52;12.93;;;7.18;;
77040;SDS011;65974;42.664;23.264;2023-06-14T02:01:18;12.85;;;7.03;;
77040;SDS011;65974;42.664;23.264;2023-06-14T02:03:46;11.07;;;5.60;;
77040;SDS011;65974;42.664;23.264;2023-06-14T02:06:13;8.98;;;5.40;;
77040;SDS011;65974;42.664;23.264;2023-06-14T02:08:38;13.02;;;6.32;;
77040;SDS011;65974;42.664;23.264;2023-06-14T02:11:05;12.00;;;6.22;;
77040;SDS011;65974;42.664;23.264;2023-06-14T02:13:30;8.85;;;5.95;;
77040;SDS011;65974;42.664;23.264;2023-06-14T02:15:55;8.48;;;5.95;;
77040;SDS011;65974;42.664;23.264;2023-06-14T02:18:22;10.13;;;5.65;;
77040;SDS011;65974;42.664;23.264;2023-06-14T02:20:48;8.40;;;5.50;;
77040;SDS011;65974;42.664;23.264;2023-06-14T02:23:13;10.43;;;6.10;;
77040;SDS011;65974;42.664;23.264;2023-06-14T02:25:39;8.25;;;5.05;;
77040;SDS011;65974;42.664;23.264;2023-06-14T02:28:05;9.77;;;5.97;;
77040;SDS011;65974;42.664;23.264;2023-06-14T02:30:31;7.35;;;5.50;;
77040;SDS011;65974;42.664;23.264;2023-06-14T02:32:57;8.07;;;4.80;;
77040;SDS011;65974;42.664;23.264;2023-06-14T02:35:23;9.82;;;5.35;;
77040;SDS011;65974;42.664;23.264;2023-06-14T02:40:17;9.38;;;5.05;;
77040;SDS011;65974;42.664;23.264;2023-06-14T02:42:43;7.65;;;4.53;;
77040;SDS011;65974;42.664;23.264;2023-06-14T02:45:08;7.32;;;5.22;;
77040;SDS011;65974;42.664;23.264;2023-06-14T02:47:35;9.25;;;4.78;;
77040;SDS011;65974;42.664;23.264;2023-06-14T02:50:00;6.57;;;4.32;;
77040;SDS011;65974;42.664;23.264;2023-06-14T02:52:28;8.05;;;4.32;;
77040;SDS011;65974;42.664;23.264;2023-06-14T02:54:53;8.02;;;4.28;;
77040;SDS011;65974;42.664;23.264;2023-06-14T02:57:19;9.40;;;4.95;;
77040;SDS011;65974;42.664;23.264;2023-06-14T02:59:45;10.23;;;5.00;;
77040;SDS011;65974;42.664;23.264;2023-06-14T03:02:11;7.57;;;4.78;;
77040;SDS011;65974;42.664;23.264;2023-06-14T03:04:36;6.07;;;4.13;;
77040;SDS011;65974;42.664;23.264;2023-06-14T03:07:04;8.55;;;4.53;;
77040;SDS011;65974;42.664;23.264;2023-06-14T03:09:37;8.27;;;5.10;;
77040;SDS011;65974;42.664;23.264;2023-06-14T03:12:03;8.15;;;4.63;;
77040;SDS011;65974;42.664;23.264;2023-06-14T03:14:30;8.88;;;4.47;;
77040;SDS011;65974;42.664;23.264;2023-06-14T03:16:56;7.45;;;4.25;;
77040;SDS011;65974;42.664;23.264;2023-06-14T03:19:24;9.70;;;4.47;;
77040;SDS011;65974;42.664;23.264;2023-06-14T03:21:51;7.15;;;4.53;;
77040;SDS011;65974;42.664;23.264;2023-06-14T03:24:17;7.93;;;5.18;;
77040;SDS011;65974;42.664;23.264;2023-06-14T03:26:42;9.52;;;5.10;;
77040;SDS011;65974;42.664;23.264;2023-06-14T03:29:08;8.07;;;5.00;;
77040;SDS011;65974;42.664;23.264;2023-06-14T03:31:41;10.77;;;5.95;;
77040;SDS011;65974;42.664;23.264;2023-06-14T03:34:25;10.05;;;5.72;;
77040;SDS011;65974;42.664;23.264;2023-06-14T03:36:51;9.55;;;5.60;;
77040;SDS011;65974;42.664;23.264;2023-06-14T03:39:17;8.63;;;5.63;;
77040;SDS011;65974;42.664;23.264;2023-06-14T03:41:43;10.65;;;5.57;;
77040;SDS011;65974;42.664;23.264;2023-06-14T03:44:08;8.68;;;4.90;;
77040;SDS011;65974;42.664;23.264;2023-06-14T03:46:34;9.18;;;5.38;;
77040;SDS011;65974;42.664;23.264;2023-06-14T03:48:59;10.23;;;5.47;;
77040;SDS011;65974;42.664;23.264;2023-06-14T03:51:25;7.60;;;5.28;;
77040;SDS011;65974;42.664;23.264;2023-06-14T03:53:51;8.15;;;4.40;;
77040;SDS011;65974;42.664;23.264;2023-06-14T03:56:16;8.13;;;4.45;;
77040;SDS011;65974;42.664;23.264;2023-06-14T03:58:42;8.05;;;4.88;;
77040;SDS011;65974;42.664;23.264;2023-06-14T04:01:07;9.10;;;4.82;;
77040;SDS011;65974;42.664;23.264;2023-06-14T04:03:33;7.40;;;4.30;;
77040;SDS011;65974;42.664;23.264;2023-06-14T04:05:58;7.22;;;4.75;;
77040;SDS011;65974;42.664;23.264;2023-06-14T04:08:25;14.35;;;6.97;;
77040;SDS011;65974;42.664;23.264;2023-06-14T04:10:50;8.20;;;5.28;;
77040;SDS011;65974;42.664;23.264;2023-06-14T04:13:16;9.18;;;4.82;;
77040;SDS011;65974;42.664;23.264;2023-06-14T04:15:42;8.43;;;5.13;;
77040;SDS011;65974;42.664;23.264;2023-06-14T04:18:08;12.05;;;5.80;;
77040;SDS011;65974;42.664;23.264;2023-06-14T04:20:34;8.45;;;5.22;;
77040;SDS011;65974;42.664;23.264;2023-06-14T04:23:11;12.73;;;5.68;;
77040;SDS011;65974;42.664;23.264;2023-06-14T04:25:37;9.15;;;5.65;;
77040;SDS011;65974;42.664;23.264;2023-06-14T04:28:03;8.55;;;5.28;;
77040;SDS011;65974;42.664;23.264;2023-06-14T04:30:29;10.90;;;6.25;;
77040;SDS011;65974;42.664;23.264;2023-06-14T04:32:56;16.67;;;7.95;;
77040;SDS011;65974;42.664;23.264;2023-06-14T04:35:21;13.05;;;7.25;;
77040;SDS011;65974;42.664;23.264;2023-06-14T04:37:49;10.75;;;7.60;;
77040;SDS011;65974;42.664;23.264;2023-06-14T04:40:14;12.68;;;8.05;;
77040;SDS011;65974;42.664;23.264;2023-06-14T04:42:40;15.20;;;7.75;;
77040;SDS011;65974;42.664;23.264;2023-06-14T04:45:09;14.77;;;8.50;;
77040;SDS011;65974;42.664;23.264;2023-06-14T04:47:36;11.30;;;7.55;;
77040;SDS011;65974;42.664;23.264;2023-06-14T04:50:02;12.40;;;7.75;;
77040;SDS011;65974;42.664;23.264;2023-06-14T04:52:28;17.05;;;9.23;;
77040;SDS011;65974;42.664;23.264;2023-06-14T04:54:54;16.70;;;11.48;;
77040;SDS011;65974;42.664;23.264;2023-06-14T04:57:20;15.07;;;9.25;;
77040;SDS011;65974;42.664;23.264;2023-06-14T04:59:47;12.68;;;7.60;;
77040;SDS011;65974;42.664;23.264;2023-06-14T05:02:13;15.68;;;8.90;;
77040;SDS011;65974;42.664;23.264;2023-06-14T05:04:39;14.77;;;8.35;;
77040;SDS011;65974;42.664;23.264;2023-06-14T05:07:07;13.57;;;7.88;;
77040;SDS011;65974;42.664;23.264;2023-06-14T05:09:34;14.13;;;7.55;;
77040;SDS011;65974;42.664;23.264;2023-06-14T05:12:00;12.95;;;8.52;;
77040;SDS011;65974;42.664;23.264;2023-06-14T05:14:26;14.55;;;8.27;;
77040;SDS011;65974;42.664;23.264;2023-06-14T05:16:52;13.80;;;8.88;;
77040;SDS011;65974;42.664;23.264;2023-06-14T05:19:18;13.23;;;8.75;;
77040;SDS011;65974;42.664;23.264;2023-06-14T05:21:45;15.07;;;8.77;;
77040;SDS011;65974;42.664;23.264;2023-06-14T05:24:12;15.05;;;8.75;;
77040;SDS011;65974;42.664;23.264;2023-06-14T05:26:37;18.27;;;9.07;;
77040;SDS011;65974;42.664;23.264;2023-06-14T05:29:03;17.10;;;9.27;;
77040;SDS011;65974;42.664;23.264;2023-06-14T05:31:28;16.55;;;10.00;;
77040;SDS011;65974;42.664;23.264;2023-06-14T05:33:54;20.50;;;9.75;;
77040;SDS011;65974;42.664;23.264;2023-06-14T05:36:20;17.23;;;8.90;;
77040;SDS011;65974;42.664;23.264;2023-06-14T05:38:49;17.23;;;9.57;;
77040;SDS011;65974;42.664;23.264;2023-06-14T05:41:15;16.73;;;10.43;;
77040;SDS011;65974;42.664;23.264;2023-06-14T05:43:41;17.55;;;9.80;;
77040;SDS011;65974;42.664;23.264;2023-06-14T05:46:07;16.15;;;9.18;;
77040;SDS011;65974;42.664;23.264;2023-06-14T05:48:32;15.27;;;9.35;;
77040;SDS011;65974;42.664;23.264;2023-06-14T05:50:58;19.55;;;9.82;;
77040;SDS011;65974;42.664;23.264;2023-06-14T05:53:24;18.98;;;11.35;;
77040;SDS011;65974;42.664;23.264;2023-06-14T05:55:49;18.95;;;10.85;;
77040;SDS011;65974;42.664;23.264;2023-06-14T05:58:18;16.98;;;9.40;;
77040;SDS011;65974;42.664;23.264;2023-06-14T06:00:45;20.35;;;11.13;;
77040;SDS011;65974;42.664;23.264;2023-06-14T06:03:11;19.15;;;10.18;;
77040;SDS011;65974;42.664;23.264;2023-06-14T06:05:38;19.00;;;11.30;;
77040;SDS011;65974;42.664;23.264;2023-06-14T06:08:04;17.17;;;10.25;;
77040;SDS011;65974;42.664;23.264;2023-06-14T06:10:30;20.75;;;10.35;;
77040;SDS011;65974;42.664;23.264;2023-06-14T06:12:55;19.85;;;9.75;;
77040;SDS011;65974;42.664;23.264;2023-06-14T06:15:21;17.23;;;10.48;;
77040;SDS011;65974;42.664;23.264;2023-06-14T06:17:46;16.35;;;8.85;;
77040;SDS011;65974;42.664;23.264;2023-06-14T06:20:12;15.52;;;8.75;;
77040;SDS011;65974;42.664;23.264;2023-06-14T06:22:37;15.23;;;8.25;;
77040;SDS011;65974;42.664;23.264;2023-06-14T06:25:04;15.82;;;9.40;;
77040;SDS011;65974;42.664;23.264;2023-06-14T06:27:31;14.05;;;9.70;;
77040;SDS011;65974;42.664;23.264;2023-06-14T06:29:57;18.58;;;9.00;;
77040;SDS011;65974;42.664;23.264;2023-06-14T06:32:22;12.32;;;7.78;;
77040;SDS011;65974;42.664;23.264;2023-06-14T06:34:47;13.50;;;9.00;;
77040;SDS011;65974;42.664;23.264;2023-06-14T06:37:13;19.38;;;8.55;;
77040;SDS011;65974;42.664;23.264;2023-06-14T06:39:39;14.52;;;8.55;;
77040;SDS011;65974;42.664;23.264;2023-06-14T06:42:05;13.93;;;8.90;;
77040;SDS011;65974;42.664;23.264;2023-06-14T06:44:31;15.63;;;8.73;;
77040;SDS011;65974;42.664;23.264;2023-06-14T06:46:57;14.38;;;8.52;;
77040;SDS011;65974;42.664;23.264;2023-06-14T06:49:23;16.55;;;8.10;;
77040;SDS011;65974;42.664;23.264;2023-06-14T06:52:01;15.40;;;8.50;;
77040;SDS011;65974;42.664;23.264;2023-06-14T06:54:28;14.50;;;9.00;;
77040;SDS011;65974;42.664;23.264;2023-06-14T06:56:53;16.48;;;10.75;;
77040;SDS011;65974;42.664;23.264;2023-06-14T06:59:19;18.05;;;9.68;;
77040;SDS011;65974;42.664;23.264;2023-06-14T07:01:44;16.50;;;10.20;;
77040;SDS011;65974;42.664;23.264;2023-06-14T07:04:10;15.88;;;9.52;;
77040;SDS011;65974;42.664;23.264;2023-06-14T07:06:35;24.48;;;14.02;;
77040;SDS011;65974;42.664;23.264;2023-06-14T07:09:01;18.70;;;11.85;;
77040;SDS011;65974;42.664;23.264;2023-06-14T07:11:27;16.58;;;9.70;;
77040;SDS011;65974;42.664;23.264;2023-06-14T07:13:52;34.63;;;18.23;;
77040;SDS011;65974;42.664;23.264;2023-06-14T07:16:18;23.38;;;14.68;;
77040;SDS011;65974;42.664;23.264;2023-06-14T07:18:43;20.10;;;12.45;;
77040;SDS011;65974;42.664;23.264;2023-06-14T07:21:09;17.15;;;10.27;;
77040;SDS011;65974;42.664;23.264;2023-06-14T07:23:34;18.55;;;10.95;;
77040;SDS011;65974;42.664;23.264;2023-06-14T07:26:00;18.92;;;11.13;;
77040;SDS011;65974;42.664;23.264;2023-06-14T07:28:26;19.70;;;10.68;;
77040;SDS011;65974;42.664;23.264;2023-06-14T07:30:51;16.48;;;9.38;;
77040;SDS011;65974;42.664;23.264;2023-06-14T07:33:16;19.80;;;11.02;;
77040;SDS011;65974;42.664;23.264;2023-06-14T07:35:42;15.45;;;10.27;;
77040;SDS011;65974;42.664;23.264;2023-06-14T07:38:07;14.60;;;10.20;;
77040;SDS011;65974;42.664;23.264;2023-06-14T07:40:33;17.98;;;9.82;;
77040;SDS011;65974;42.664;23.264;2023-06-14T07:42:58;24.88;;;10.20;;
77040;SDS011;65974;42.664;23.264;2023-06-14T07:45:24;21.38;;;11.43;;
77040;SDS011;65974;42.664;23.264;2023-06-14T07:47:49;18.73;;;11.35;;
77040;SDS011;65974;42.664;23.264;2023-06-14T07:50:16;16.58;;;9.70;;
77040;SDS011;65974;42.664;23.264;2023-06-14T07:52:42;22.10;;;11.88;;
77040;SDS011;65974;42.664;23.264;2023-06-14T07:55:07;17.30;;;9.63;;
77040;SDS011;65974;42.664;23.264;2023-06-14T07:57:33;16.30;;;9.55;;
77040;SDS011;65974;42.664;23.264;2023-06-14T07:59:58;18.23;;;10.23;;
77040;SDS011;65974;42.664;23.264;2023-06-14T08:02:24;16.42;;;10.52;;
77040;SDS011;65974;42.664;23.264;2023-06-14T08:04:49;17.52;;;10.63;;
77040;SDS011;65974;42.664;23.264;2023-06-14T08:07:15;17.60;;;10.30;;
77040;SDS011;65974;42.664;23.264;2023-06-14T08:09:40;18.65;;;9.80;;
77040;SDS011;65974;42.664;23.264;2023-06-14T08:12:06;17.52;;;10.55;;
77040;SDS011;65974;42.664;23.264;2023-06-14T08:14:35;17.33;;;9.90;;
77040;SDS011;65974;42.664;23.264;2023-06-14T08:17:01;19.23;;;10.45;;
77040;SDS011;65974;42.664;23.264;2023-06-14T08:19:28;20.70;;;10.80;;
77040;SDS011;65974;42.664;23.264;2023-06-14T08:21:53;18.20;;;10.02;;
77040;SDS011;65974;42.664;23.264;2023-06-14T08:24:23;14.18;;;8.65;;
77040;SDS011;65974;42.664;23.264;2023-06-14T08:26:54;17.90;;;9.75;;
77040;SDS011;65974;42.664;23.264;2023-06-14T08:29:19;26.02;;;10.35;;
77040;SDS011;65974;42.664;23.264;2023-06-14T08:31:46;17.50;;;10.43;;
77040;SDS011;65974;42.664;23.264;2023-06-14T08:34:12;13.68;;;8.02;;
77040;SDS011;65974;42.664;23.264;2023-06-14T08:36:37;12.73;;;8.50;;
77040;SDS011;65974;42.664;23.264;2023-06-14T08:39:02;13.35;;;8.43;;
77040;SDS011;65974;42.664;23.264;2023-06-14T08:41:28;17.95;;;9.63;;
77040;SDS011;65974;42.664;23.264;2023-06-14T08:43:55;14.80;;;9.07;;
77040;SDS011;65974;42.664;23.264;2023-06-14T08:46:21;18.25;;;8.45;;
77040;SDS011;65974;42.664;23.264;2023-06-14T08:48:52;13.55;;;8.98;;
77040;SDS011;65974;42.664;23.264;2023-06-14T08:51:22;16.00;;;8.98;;
77040;SDS011;65974;42.664;23.264;2023-06-14T08:53:55;20.15;;;9.85;;
77040;SDS011;65974;42.664;23.264;2023-06-14T08:56:27;17.92;;;10.27;;
77040;SDS011;65974;42.664;23.264;2023-06-14T08:58:54;15.65;;;8.80;;
77040;SDS011;65974;42.664;23.264;2023-06-14T09:01:23;15.35;;;9.00;;
77040;SDS011;65974;42.664;23.264;2023-06-14T09:03:49;13.80;;;8.85;;
77040;SDS011;65974;42.664;23.264;2023-06-14T09:06:15;14.23;;;9.15;;
77040;SDS011;65974;42.664;23.264;2023-06-14T09:08:42;17.50;;;9.90;;
77040;SDS011;65974;42.664;23.264;2023-06-14T09:13:38;16.15;;;8.30;;
77040;SDS011;65974;42.664;23.264;2023-06-14T09:16:04;17.85;;;10.02;;
77040;SDS011;65974;42.664;23.264;2023-06-14T09:18:40;14.73;;;9.00;;
77040;SDS011;65974;42.664;23.264;2023-06-14T09:23:45;14.88;;;9.93;;
77040;SDS011;65974;42.664;23.264;2023-06-14T09:28:41;16.75;;;10.90;;
77040;SDS011;65974;42.664;23.264;2023-06-14T09:31:12;16.33;;;10.15;;
77040;SDS011;65974;42.664;23.264;2023-06-14T09:33:38;18.80;;;11.55;;
77040;SDS011;65974;42.664;23.264;2023-06-14T09:36:12;16.65;;;10.35;;
77040;SDS011;65974;42.664;23.264;2023-06-14T09:38:40;20.75;;;10.93;;
77040;SDS011;65974;42.664;23.264;2023-06-14T09:41:06;20.00;;;11.75;;
77040;SDS011;65974;42.664;23.264;2023-06-14T09:43:32;18.40;;;11.05;;
77040;SDS011;65974;42.664;23.264;2023-06-14T09:46:00;19.90;;;11.10;;
77040;SDS011;65974;42.664;23.264;2023-06-14T09:48:25;15.93;;;10.02;;
77040;SDS011;65974;42.664;23.264;2023-06-14T09:50:52;18.23;;;10.82;;
77040;SDS011;65974;42.664;23.264;2023-06-14T09:53:21;18.58;;;11.23;;
77040;SDS011;65974;42.664;23.264;2023-06-14T09:55:50;18.80;;;11.40;;
77040;SDS011;65974;42.664;23.264;2023-06-14T10:00:44;17.42;;;9.60;;
77040;SDS011;65974;42.664;23.264;2023-06-14T10:03:13;16.95;;;9.93;;
77040;SDS011;65974;42.664;23.264;2023-06-14T10:05:43;15.48;;;9.60;;
77040;SDS011;65974;42.664;23.264;2023-06-14T10:08:12;15.15;;;9.43;;
77040;SDS011;65974;42.664;23.264;2023-06-14T10:10:41;18.25;;;10.98;;
77040;SDS011;65974;42.664;23.264;2023-06-14T10:13:08;19.38;;;10.65;;
77040;SDS011;65974;42.664;23.264;2023-06-14T10:15:55;16.15;;;9.75;;
77040;SDS011;65974;42.664;23.264;2023-06-14T10:18:35;16.02;;;10.23;;
77040;SDS011;65974;42.664;23.264;2023-06-14T10:21:13;19.42;;;11.50;;
77040;SDS011;65974;42.664;23.264;2023-06-14T10:23:41;20.35;;;11.65;;
77040;SDS011;65974;42.664;23.264;2023-06-14T10:26:13;18.25;;;11.25;;
77040;SDS011;65974;42.664;23.264;2023-06-14T10:28:47;18.35;;;10.70;;
77040;SDS011;65974;42.664;23.264;2023-06-14T10:31:21;18.08;;;11.23;;
77040;SDS011;65974;42.664;23.264;2023-06-14T10:38:56;16.10;;;10.77;;
77040;SDS011;65974;42.664;23.264;2023-06-14T10:41:26;16.65;;;10.70;;
77040;SDS011;65974;42.664;23.264;2023-06-14T10:43:52;17.60;;;11.57;;
77040;SDS011;65974;42.664;23.264;2023-06-14T10:46:35;19.30;;;10.65;;
77040;SDS011;65974;42.664;23.264;2023-06-14T10:49:00;18.23;;;10.50;;
77040;SDS011;65974;42.664;23.264;2023-06-14T10:51:29;20.48;;;11.23;;
77040;SDS011;65974;42.664;23.264;2023-06-14T10:53:56;17.42;;;9.75;;
77040;SDS011;65974;42.664;23.264;2023-06-14T10:58:53;17.77;;;10.93;;
77040;SDS011;65974;42.664;23.264;2023-06-14T11:01:23;16.10;;;10.45;;
77040;SDS011;65974;42.664;23.264;2023-06-14T11:04:09;16.30;;;10.27;;
77040;SDS011;65974;42.664;23.264;2023-06-14T11:06:46;16.27;;;10.77;;
77040;SDS011;65974;42.664;23.264;2023-06-14T11:12:31;18.08;;;11.32;;
77040;SDS011;65974;42.664;23.264;2023-06-14T11:14:58;16.45;;;10.68;;
77040;SDS011;65974;42.664;23.264;2023-06-14T11:17:24;16.10;;;10.50;;
77040;SDS011;65974;42.664;23.264;2023-06-14T11:19:53;15.45;;;9.57;;
77040;SDS011;65974;42.664;23.264;2023-06-14T11:22:38;17.73;;;9.52;;
77040;SDS011;65974;42.664;23.264;2023-06-14T11:25:04;19.35;;;10.32;;
77040;SDS011;65974;42.664;23.264;2023-06-14T11:27:33;20.15;;;12.25;;
77040;SDS011;65974;42.664;23.264;2023-06-14T11:29:59;20.42;;;12.73;;
77040;SDS011;65974;42.664;23.264;2023-06-14T11:32:24;16.42;;;9.23;;
77040;SDS011;65974;42.664;23.264;2023-06-14T11:34:50;16.52;;;9.98;;
77040;SDS011;65974;42.664;23.264;2023-06-14T11:37:16;19.02;;;9.98;;
77040;SDS011;65974;42.664;23.264;2023-06-14T11:39:45;18.00;;;11.63;;
77040;SDS011;65974;42.664;23.264;2023-06-14T11:42:16;16.40;;;10.20;;
77040;SDS011;65974;42.664;23.264;2023-06-14T11:44:42;17.27;;;9.95;;
77040;SDS011;65974;42.664;23.264;2023-06-14T11:47:07;17.00;;;10.18;;
77040;SDS011;65974;42.664;23.264;2023-06-14T11:49:36;17.98;;;9.98;;
77040;SDS011;65974;42.664;23.264;2023-06-14T11:52:01;16.30;;;10.52;;
77040;SDS011;65974;42.664;23.264;2023-06-14T11:54:27;16.45;;;9.90;;
77040;SDS011;65974;42.664;23.264;2023-06-14T11:56:53;17.02;;;9.63;;
77040;SDS011;65974;42.664;23.264;2023-06-14T11:59:19;13.18;;;9.43;;
77040;SDS011;65974;42.664;23.264;2023-06-14T12:01:45;13.88;;;8.82;;
77040;SDS011;65974;42.664;23.264;2023-06-14T12:04:13;14.13;;;8.77;;
77040;SDS011;65974;42.664;23.264;2023-06-14T12:06:38;13.10;;;8.75;;
77040;SDS011;65974;42.664;23.264;2023-06-14T12:09:04;15.90;;;9.55;;
77040;SDS011;65974;42.664;23.264;2023-06-14T12:11:43;15.07;;;9.07;;
77040;SDS011;65974;42.664;23.264;2023-06-14T12:14:08;12.98;;;9.02;;
77040;SDS011;65974;42.664;23.264;2023-06-14T12:16:35;12.75;;;8.38;;
77040;SDS011;65974;42.664;23.264;2023-06-14T12:19:12;12.25;;;8.50;;
77040;SDS011;65974;42.664;23.264;2023-06-14T12:21:42;10.95;;;8.20;;
77040;SDS011;65974;42.664;23.264;2023-06-14T12:24:08;12.15;;;8.02;;
77040;SDS011;65974;42.664;23.264;2023-06-14T12:26:39;11.80;;;7.22;;
77040;SDS011;65974;42.664;23.264;2023-06-14T12:29:06;12.18;;;7.82;;
77040;SDS011;65974;42.664;23.264;2023-06-14T12:31:32;10.32;;;6.90;;
77040;SDS011;65974;42.664;23.264;2023-06-14T12:33:58;11.18;;;7.78;;
77040;SDS011;65974;42.664;23.264;2023-06-14T12:36:24;11.25;;;7.32;;
77040;SDS011;65974;42.664;23.264;2023-06-14T12:38:50;10.23;;;7.00;;
77040;SDS011;65974;42.664;23.264;2023-06-14T12:43:46;9.48;;;6.75;;
77040;SDS011;65974;42.664;23.264;2023-06-14T12:46:11;10.85;;;7.70;;
77040;SDS011;65974;42.664;23.264;2023-06-14T12:48:36;10.15;;;7.43;;
77040;SDS011;65974;42.664;23.264;2023-06-14T12:51:03;12.80;;;7.03;;
77040;SDS011;65974;42.664;23.264;2023-06-14T12:53:28;11.07;;;7.47;;
77040;SDS011;65974;42.664;23.264;2023-06-14T12:55:54;10.48;;;7.20;;
77040;SDS011;65974;42.664;23.264;2023-06-14T12:58:19;11.15;;;7.57;;
77040;SDS011;65974;42.664;23.264;2023-06-14T13:00:45;10.38;;;6.63;;
77040;SDS011;65974;42.664;23.264;2023-06-14T13:03:11;10.48;;;7.45;;
77040;SDS011;65974;42.664;23.264;2023-06-14T13:05:37;10.10;;;6.57;;
77040;SDS011;65974;42.664;23.264;2023-06-14T13:08:06;9.38;;;6.80;;
77040;SDS011;65974;42.664;23.264;2023-06-14T13:10:33;12.93;;;8.00;;
77040;SDS011;65974;42.664;23.264;2023-06-14T13:12:59;9.98;;;6.35;;
77040;SDS011;65974;42.664;23.264;2023-06-14T13:15:25;11.45;;;7.28;;
77040;SDS011;65974;42.664;23.264;2023-06-14T13:17:52;8.90;;;5.93;;
77040;SDS011;65974;42.664;23.264;2023-06-14T13:20:18;10.82;;;7.28;;
77040;SDS011;65974;42.664;23.264;2023-06-14T13:22:43;8.05;;;6.68;;
77040;SDS011;65974;42.664;23.264;2023-06-14T13:25:08;9.95;;;6.40;;
77040;SDS011;65974;42.664;23.264;2023-06-14T13:27:35;12.32;;;7.10;;
77040;SDS011;65974;42.664;23.264;2023-06-14T13:30:00;11.32;;;6.20;;
77040;SDS011;65974;42.664;23.264;2023-06-14T13:32:26;8.18;;;6.30;;
77040;SDS011;65974;42.664;23.264;2023-06-14T13:34:51;9.75;;;6.72;;
77040;SDS011;65974;42.664;23.264;2023-06-14T13:37:18;12.20;;;8.00;;
77040;SDS011;65974;42.664;23.264;2023-06-14T13:39:43;12.02;;;7.43;;
77040;SDS011;65974;42.664;23.264;2023-06-14T13:42:08;11.65;;;7.32;;
77040;SDS011;65974;42.664;23.264;2023-06-14T13:44:35;12.45;;;7.60;;
77040;SDS011;65974;42.664;23.264;2023-06-14T13:47:01;12.55;;;7.90;;
77040;SDS011;65974;42.664;23.264;2023-06-14T13:49:26;10.23;;;7.97;;
77040;SDS011;65974;42.664;23.264;2023-06-14T13:51:52;13.80;;;8.88;;
77040;SDS011;65974;42.664;23.264;2023-06-14T13:54:19;10.95;;;7.28;;
77040;SDS011;65974;42.664;23.264;2023-06-14T13:56:46;12.75;;;7.53;;
77040;SDS011;65974;42.664;23.264;2023-06-14T13:59:11;12.80;;;8.20;;
77040;SDS011;65974;42.664;23.264;2023-06-14T14:01:37;11.40;;;6.95;;
77040;SDS011;65974;42.664;23.264;2023-06-14T14:04:02;10.32;;;7.57;;
77040;SDS011;65974;42.664;23.264;2023-06-14T14:06:28;11.57;;;7.68;;
77040;SDS011;65974;42.664;23.264;2023-06-14T14:08:53;10.27;;;6.80;;
77040;SDS011;65974;42.664;23.264;2023-06-14T14:11:19;11.85;;;7.28;;
77040;SDS011;65974;42.664;23.264;2023-06-14T14:13:45;12.00;;;7.35;;
77040;SDS011;65974;42.664;23.264;2023-06-14T14:16:12;14.23;;;8.00;;
77040;SDS011;65974;42.664;23.264;2023-06-14T14:18:38;14.50;;;9.00;;
77040;SDS011;65974;42.664;23.264;2023-06-14T14:21:04;14.05;;;7.80;;
77040;SDS011;65974;42.664;23.264;2023-06-14T14:23:29;12.20;;;8.23;;
77040;SDS011;65974;42.664;23.264;2023-06-14T14:25:55;13.25;;;9.50;;
77040;SDS011;65974;42.664;23.264;2023-06-14T14:28:20;12.52;;;8.57;;
77040;SDS011;65974;42.664;23.264;2023-06-14T14:30:46;12.82;;;7.47;;
77040;SDS011;65974;42.664;23.264;2023-06-14T14:33:15;12.77;;;7.82;;
77040;SDS011;65974;42.664;23.264;2023-06-14T14:35:45;10.45;;;6.75;;
77040;SDS011;65974;42.664;23.264;2023-06-14T14:38:13;12.52;;;8.00;;
77040;SDS011;65974;42.664;23.264;2023-06-14T14:40:42;12.98;;;8.10;;
77040;SDS011;65974;42.664;23.264;2023-06-14T14:43:09;11.25;;;7.20;;
77040;SDS011;65974;42.664;23.264;2023-06-14T14:45:34;10.98;;;7.78;;
77040;SDS011;65974;42.664;23.264;2023-06-14T14:48:00;9.30;;;6.25;;
77040;SDS011;65974;42.664;23.264;2023-06-14T14:50:27;11.55;;;6.55;;
77040;SDS011;65974;42.664;23.264;2023-06-14T14:52:53;9.68;;;6.00;;